Data for 11/28/2008

Time Sea-Level Adjusted Pressure Absolute Pressure Temperature Relative Humidity Dew Point   
(mb) (inHg) (mb) (inHg) (C) (F) (%) (C) (F)
00:05 1017 30.03 847 25.01 -3.5 25.7 64 -9.3 15.2
00:10 1017 30.03 847 25.01 -3.6 25.6 62 -9.9 14.2
00:15 1017 30.03 847 25.01 -3.3 26.1 59 -10.2 13.6
00:20 1017 30.03 847 25.01 -3.6 25.5 62 -9.9 14.2
00:25 1017 30.03 846 24.98 -4 24.8 66 -9.5 14.9
00:30 1017 30.03 846 24.98 -4.1 24.7 64 -10 14.1
00:35 1017 30.03 846 24.98 -4.4 24.2 67 -9.6 14.7
00:40 1017 30.03 846 24.98 -4.8 23.4 66 -10.2 13.7
00:45 1017 30.03 846 24.98 -4.5 23.9 66 -10 14
00:50 1017 30.03 846 24.98 -4.4 24 66 -9.8 14.4
00:55 1017 30.03 846 24.98 -4.4 24.1 68 -9.4 15.1
01:00 1017 30.03 846 24.98 -4.6 23.7 71 -9.1 15.6
01:05 1017 30.03 846 24.98 -4.6 23.7 71 -9.1 15.7
01:10 1017 30.03 846 24.98 -4.5 24 70 -9.2 15.5
01:15 1017 30.03 846 24.98 -4.3 24.2 70 -9 15.9
01:20 1017 30.03 846 24.98 -4 24.8 71 -8.6 16.5
01:25 1017 30.03 846 24.98 -3.9 25 71 -8.4 16.8
01:30 1017 30.03 846 24.98 -3.9 25.1 71 -8.4 16.9
01:35 1017 30.03 846 24.98 -3.7 25.3 71 -8.3 17.1
01:40 1017 30.03 846 24.98 -3.6 25.6 70 -8.2 17.2
01:45 1017 30.03 846 24.98 -3.1 26.5 67 -8.3 17.1
01:50 1017 30.03 846 24.98 -2.5 27.5 65 -8.2 17.3
01:55 1017 30.03 846 24.98 -2.6 27.3 69 -7.5 18.5
02:00 1017 30.03 846 24.98 -3 26.6 70 -7.7 18.1
02:05 1017 30.03 846 24.98 -2.6 27.3 66 -8 17.5
02:10 1017 30.03 846 24.98 -2.2 28 66 -7.7 18.1
02:15 1017 30.03 846 24.98 -2.1 28.1 65 -7.9 17.9
02:20 1017 30.03 846 24.98 -2 28.4 65 -7.8 18
02:25 1017 30.03 846 24.98 -1.9 28.6 64 -7.7 18.1
02:30 1017 30.03 846 24.98 -2 28.3 66 -7.6 18.3
02:35 1017 30.03 846 24.98 -2 28.4 64 -8 17.6
02:40 1017 30.03 846 24.98 -1.6 29.2 65 -7.4 18.7
02:45 1017 30.03 846 24.98 -2.1 28.3 65 -7.8 17.9
02:50 1017 30.03 846 24.98 -2.1 28.2 65 -7.7 18.1
02:55 1017 30.03 846 24.98 -2.3 27.9 67 -7.6 18.3
03:00 1017 30.03 846 24.98 -2.5 27.4 70 -7.4 18.7
03:05 1017 30.03 846 24.98 -2.9 26.8 71 -7.4 18.7
03:10 1017 30.03 846 24.98 -2.6 27.3 66 -8.1 17.4
03:15 1017 30.03 846 24.98 -1.9 28.6 63 -7.9 17.8
03:20 1017 30.03 846 24.98 -1.4 29.5 61 -7.9 17.7
03:25 1017 30.03 846 24.98 -1 30.2 58 -8.3 17.1
03:30 1017 30.03 846 24.98 -0.8 30.6 57 -8.3 17.1
03:35 1017 30.03 846 24.98 -0.9 30.4 58 -8.1 17.5
03:40 1017 30.03 846 24.98 -1.2 29.8 61 -7.9 17.8
03:45 1017 30.03 847 25.01 -1.9 28.6 65 -7.7 18.2
03:50 1017 30.03 847 25.01 -2.6 27.4 69 -7.4 18.7
03:55 1017 30.03 847 25.01 -3.3 26.1 75 -7.2 19.1
04:00 1018 30.06 847 25.01 -3.8 25.1 76 -7.5 18.5
04:05 1017 30.03 847 25.01 -3.9 25 75 -7.6 18.3
04:10 1018 30.06 847 25.01 -3.9 25 76 -7.6 18.4
04:15 1018 30.06 847 25.01 -3.9 24.9 76 -7.6 18.4
04:20 1018 30.06 847 25.01 -3.9 24.9 76 -7.6 18.3
04:25 1018 30.06 847 25.01 -3.8 25.1 74 -7.9 17.8
04:30 1018 30.06 847 25.01 -3.6 25.5 73 -7.8 18
04:35 1018 30.06 847 25.01 -3.6 25.6 72 -7.9 17.8
04:40 1018 30.06 847 25.01 -3.4 25.8 72 -7.8 18
04:45 1018 30.06 847 25.01 -3.5 25.8 70 -8.2 17.2
04:50 1018 30.06 847 25.01 -3.5 25.7 71 -8.1 17.5
04:55 1018 30.06 847 25.01 -3.1 26.4 69 -8 17.5
05:00 1018 30.06 847 25.01 -2.8 26.9 72 -7.2 19
05:05 1018 30.06 847 25.01 -2.5 27.4 71 -7.1 19.2
05:10 1018 30.06 847 25.01 -2.6 27.4 71 -7.2 19
05:15 1018 30.06 847 25.01 -2.2 28.1 71 -6.8 19.7
05:20 1018 30.06 847 25.01 -1.8 28.8 66 -7.3 18.8
05:25 1018 30.06 847 25.01 -0.8 30.5 59 -7.7 18.1
05:30 1018 30.06 847 25.01 -0.3 31.4 59 -7.3 18.8
05:35 1018 30.06 847 25.01 -0.3 31.5 58 -7.5 18.5
05:40 1018 30.06 847 25.01 -0.2 31.6 59 -7.3 18.8
05:45 1018 30.06 847 25.01 -0.4 31.2 59 -7.4 18.6
05:50 1018 30.06 847 25.01 -0.4 31.2 59 -7.5 18.5
05:55 1018 30.06 847 25.01 -0.7 30.8 61 -7.2 19
06:00 1018 30.06 847 25.01 -1.7 28.9 65 -7.5 18.6
06:05 1018 30.06 847 25.01 -1.9 28.5 64 -7.8 18
06:10 1018 30.06 847 25.01 -1.5 29.4 63 -7.6 18.2
06:15 1018 30.06 847 25.01 -1.5 29.2 63 -7.6 18.3
06:20 1018 30.06 847 25.01 -1 30.2 60 -7.7 18.1
06:25 1018 30.06 847 25.01 -0.3 31.5 58 -7.6 18.4
06:30 1018 30.06 847 25.01 0.1 32.1 58 -7.2 19.1
06:35 1018 30.06 847 25.01 -0.1 31.8 59 -7.3 18.9
06:40 1018 30.06 847 25.01 -0.5 31 61 -7.1 19.3
06:45 1018 30.06 847 25.01 -0.7 30.7 63 -6.9 19.6
06:50 1018 30.06 847 25.01 -1.1 30 66 -6.6 20.1
06:55 1018 30.06 847 25.01 -0.9 30.3 64 -7 19.5
07:00 1018 30.06 847 25.01 -0.8 30.6 66 -6.3 20.7
07:05 1018 30.06 847 25.01 -1 30.2 68 -6.2 20.9
07:10 1018 30.06 848 25.04 -1.1 30.1 70 -5.9 21.3
07:15 1019 30.09 848 25.04 -1.2 29.8 69 -6.2 20.9
07:20 1019 30.09 848 25.04 -1.2 29.9 70 -6 21.2
07:25 1019 30.09 848 25.04 -1.3 29.6 70 -6 21.1
07:30 1019 30.09 848 25.04 -1.2 29.8 70 -5.9 21.4
07:35 1019 30.09 848 25.04 -1.2 29.8 70 -6 21.2
07:40 1019 30.09 848 25.04 -1 30.2 71 -5.6 21.9
07:45 1019 30.09 848 25.04 -1 30.2 70 -5.9 21.5
07:50 1019 30.09 848 25.04 -0.5 31.1 68 -5.7 21.8
07:55 1019 30.09 848 25.04 -0.2 31.6 68 -5.5 22.1
08:00 1019 30.09 848 25.04 -0.4 31.3 69 -5.3 22.4
08:05 1019 30.09 848 25.04 -0.7 30.8 70 -5.5 22
08:10 1019 30.09 848 25.04 -1.2 29.8 71 -5.9 21.4
08:15 1019 30.09 848 25.04 -0.9 30.3 70 -5.8 21.5
08:20 1019 30.09 848 25.04 -0.7 30.7 68 -5.9 21.4
08:25 1019 30.09 848 25.04 -0.9 30.5 68 -6.1 21
08:30 1019 30.09 848 25.04 -0.8 30.6 69 -5.8 21.6
08:35 1019 30.09 848 25.04 -0.6 30.8 69 -5.6 21.9
08:40 1019 30.09 848 25.04 -0.6 31 72 -5.1 22.8
08:45 1019 30.09 848 25.04 -0.2 31.7 71 -4.8 23.3
08:50 1019 30.09 848 25.04 0.3 32.5 67 -5.1 22.9
08:55 1019 30.09 848 25.04 -0.6 30.9 73 -4.9 23.1
09:00 1019 30.09 848 25.04 -0.2 31.6 69 -5.1 22.8
09:05 1019 30.09 848 25.04 0.1 32.2 68 -5.1 22.8
09:10 1019 30.09 848 25.04 -0.2 31.6 68 -5.4 22.3
09:15 1019 30.09 848 25.04 -0.6 31 68 -5.8 21.6
09:20 1019 30.09 848 25.04 -0.5 31.1 67 -5.9 21.3
09:25 1019 30.09 849 25.07 -0.4 31.3 67 -5.8 21.5
09:30 1019 30.09 849 25.07 -0.3 31.5 66 -5.8 21.5
09:35 1019 30.09 849 25.07 -0.1 31.8 65 -5.8 21.5
09:40 1020 30.12 849 25.07 0 32.1 65 -5.7 21.7
09:45 1020 30.12 849 25.07 0.2 32.3 66 -5.4 22.2
09:50 1020 30.12 849 25.07 0.3 32.5 66 -5.3 22.5
09:55 1020 30.12 849 25.07 0.5 32.9 66 -5.2 22.6
10:00 1020 30.12 849 25.07 0.7 33.3 65 -5.1 22.8
10:05 1020 30.12 849 25.07 0.9 33.6 64 -5.1 22.9
10:10 1019 30.09 849 25.07 1.1 34.1 63 -5.1 22.8
10:15 1020 30.12 849 25.07 1.4 34.6 63 -4.9 23.1
10:20 1020 30.12 849 25.07 1.7 35 62 -4.9 23.1
10:25 1020 30.12 849 25.07 1.8 35.3 61 -4.9 23.2
10:30 1020 30.12 849 25.07 2 35.6 60 -4.9 23.1
10:35 1020 30.12 849 25.07 2.2 35.9 59 -4.9 23.2
10:40 1020 30.12 849 25.07 2.4 36.3 58 -4.9 23.1
10:45 1020 30.12 849 25.07 2.6 36.6 58 -4.8 23.3
10:50 1020 30.12 849 25.07 2.6 36.7 58 -4.7 23.5
10:55 1020 30.12 849 25.07 2.5 36.6 58 -4.8 23.4
11:00 1020 30.12 849 25.07 2.5 36.4 59 -4.8 23.3
11:05 1020 30.12 849 25.07 2.7 36.8 58 -4.9 23.3
11:10 1020 30.12 849 25.07 2.7 36.8 58 -4.7 23.6
11:15 1020 30.12 849 25.07 2.9 37.3 57 -4.7 23.6
11:20 1020 30.12 849 25.07 2.9 37.3 57 -4.7 23.5
11:25 1020 30.12 849 25.07 3 37.4 57 -4.7 23.6
11:30 1020 30.12 849 25.07 3 37.3 57 -4.8 23.4
11:35 1020 30.12 849 25.07 3.1 37.5 57 -4.7 23.5
11:40 1020 30.12 849 25.07 3.2 37.8 56 -4.8 23.4
11:45 1020 30.12 849 25.07 3.5 38.2 56 -4.6 23.8
11:50 1020 30.12 849 25.07 3.5 38.2 55 -4.6 23.7
11:55 1020 30.12 849 25.07 3.4 38.1 55 -4.7 23.6
12:00 1020 30.12 849 25.07 3.6 38.5 55 -4.6 23.8
12:05 1020 30.12 849 25.07 3.6 38.5 56 -4.4 24.1
12:10 1020 30.12 849 25.07 3.8 38.8 55 -4.5 24
12:15 1020 30.12 849 25.07 4.1 39.4 55 -4.2 24.5
12:20 1020 30.12 849 25.07 4.3 39.7 53 -4.5 23.9
12:25 1020 30.12 849 25.07 4.4 40 53 -4.3 24.3
12:30 1020 30.12 849 25.07 4.5 40 54 -4 24.8
12:35 1020 30.12 849 25.07 4.6 40.3 53 -4.2 24.5
12:40 1020 30.12 849 25.07 4.5 40.2 53 -4.1 24.5
12:45 1020 30.12 849 25.07 4.6 40.2 54 -4 24.7
12:50 1020 30.12 849 25.07 4.3 39.7 55 -4.1 24.7
12:55 1020 30.12 849 25.07 4.1 39.3 56 -4 24.9
13:00 1020 30.12 849 25.07 4.3 39.7 54 -4.2 24.4
13:05 1020 30.12 849 25.07 4.2 39.5 55 -4.1 24.6
13:10 1020 30.12 849 25.07 4.2 39.6 54 -4.2 24.5
13:15 1020 30.12 849 25.07 4.3 39.8 54 -4.2 24.5
13:20 1020 30.12 849 25.07 4.6 40.2 52 -4.5 23.9
13:25 1020 30.12 849 25.07 4.6 40.3 53 -4.2 24.5
13:30 1020 30.12 849 25.07 4.6 40.3 53 -4.2 24.5
13:35 1020 30.12 849 25.07 4.5 40.1 53 -4.3 24.2
13:40 1020 30.12 849 25.07 4.4 40 52 -4.5 23.9
13:45 1020 30.12 849 25.07 4.4 39.9 52 -4.6 23.8
13:50 1019 30.09 849 25.07 4.4 39.9 51 -4.7 23.5
13:55 1019 30.09 849 25.07 4.4 39.9 53 -4.5 24
14:00 1019 30.09 848 25.04 4.3 39.8 52 -4.7 23.5
14:05 1019 30.09 848 25.04 4.3 39.8 51 -4.9 23.3
14:10 1019 30.09 849 25.07 4.4 39.9 51 -4.9 23.2
14:15 1019 30.09 849 25.07 4.4 39.9 51 -4.8 23.4
14:20 1019 30.09 849 25.07 4.5 40.1 51 -4.7 23.5
14:25 1020 30.12 849 25.07 4.6 40.3 51 -4.7 23.6
14:30 1019 30.09 849 25.07 4.7 40.4 50 -4.8 23.3
14:35 1019 30.09 849 25.07 4.5 40.1 51 -4.9 23.2
14:40 1019 30.09 849 25.07 4.3 39.8 51 -4.8 23.3
14:45 1019 30.09 848 25.04 4.3 39.8 51 -4.9 23.1
14:50 1019 30.09 848 25.04 4.3 39.7 51 -5 23
14:55 1019 30.09 848 25.04 4.2 39.6 51 -4.9 23.2
15:00 1019 30.09 848 25.04 4.2 39.5 52 -4.9 23.1
15:05 1019 30.09 848 25.04 4 39.3 51 -5.1 22.8
15:10 1019 30.09 848 25.04 4 39.2 51 -5.2 22.6
15:15 1019 30.09 848 25.04 4.1 39.3 51 -5.3 22.5
15:20 1019 30.09 848 25.04 4.1 39.3 50 -5.4 22.3
15:25 1019 30.09 848 25.04 4.1 39.5 50 -5.4 22.3
15:30 1019 30.09 848 25.04 4.2 39.6 50 -5.3 22.5
15:35 1019 30.09 848 25.04 4.1 39.5 51 -5.1 22.9
15:40 1019 30.09 848 25.04 4.1 39.5 51 -5.2 22.7
15:45 1019 30.09 848 25.04 4.1 39.4 51 -5.1 22.9
15:50 1019 30.09 848 25.04 3.9 39.1 53 -4.9 23.3
15:55 1019 30.09 848 25.04 3.9 38.9 53 -4.9 23.1
16:00 1019 30.09 848 25.04 3.7 38.7 53 -5 23
16:05 1019 30.09 848 25.04 3.6 38.4 53 -5.1 22.9
16:10 1019 30.09 848 25.04 3.4 38.2 53 -5.3 22.5
16:15 1019 30.09 848 25.04 3.4 38.1 52 -5.6 22
16:20 1019 30.09 849 25.07 3.4 38 53 -5.3 22.5
16:25 1019 30.09 848 25.04 3.2 37.8 54 -5.3 22.5
16:30 1019 30.09 848 25.04 3.1 37.6 52 -5.9 21.4
16:35 1019 30.09 848 25.04 3.2 37.8 52 -5.8 21.6
16:40 1020 30.12 849 25.07 3.2 37.7 52 -5.8 21.5
16:45 1020 30.12 849 25.07 3.1 37.6 52 -5.8 21.6
16:50 1019 30.09 849 25.07 3 37.3 52 -5.9 21.5
16:55 1020 30.12 849 25.07 2.9 37.2 52 -5.9 21.3
17:00 1020 30.12 849 25.07 3 37.3 52 -5.8 21.5
17:05 1020 30.12 849 25.07 2.9 37.2 53 -5.7 21.7
17:10 1020 30.12 849 25.07 2.9 37.2 53 -5.8 21.6
17:15 1020 30.12 849 25.07 3 37.4 53 -5.7 21.7
17:20 1019 30.09 849 25.07 2.9 37.3 53 -5.6 21.9
17:25 1019 30.09 849 25.07 2.7 36.9 54 -5.7 21.8
17:30 1019 30.09 849 25.07 2.8 37 53 -5.7 21.7
17:35 1019 30.09 849 25.07 2.9 37.2 53 -5.7 21.7
17:40 1019 30.09 849 25.07 3 37.5 52 -5.9 21.4
17:45 1019 30.09 849 25.07 3.1 37.6 54 -5.4 22.3
17:50 1020 30.12 849 25.07 2.7 36.9 56 -5.2 22.7
17:55 1020 30.12 849 25.07 2.4 36.3 57 -5.2 22.6
18:00 1020 30.12 849 25.07 2.2 36 58 -5.2 22.6
18:05 1020 30.12 849 25.07 2.3 36.1 58 -5.2 22.7
18:10 1020 30.12 849 25.07 2.2 35.9 59 -5.1 22.8
18:15 1020 30.12 849 25.07 2.3 36.1 57 -5.3 22.4
18:20 1020 30.12 849 25.07 2.5 36.4 57 -5.3 22.5
18:25 1020 30.12 849 25.07 2.6 36.7 56 -5.3 22.4
18:30 1019 30.09 849 25.07 2.7 36.8 56 -5.3 22.4
18:35 1019 30.09 849 25.07 2.8 37 55 -5.5 22.1
18:40 1019 30.09 849 25.07 2.8 37.1 55 -5.4 22.4
18:45 1019 30.09 849 25.07 2.7 36.9 56 -5.2 22.6
18:50 1019 30.09 849 25.07 2.6 36.6 57 -5 23
18:55 1019 30.09 849 25.07 2.5 36.6 58 -4.9 23.1
19:00 1019 30.09 849 25.07 2.5 36.5 58 -5 23
19:05 1019 30.09 849 25.07 2.6 36.7 55 -5.5 22.2
19:10 1019 30.09 849 25.07 3 37.3 54 -5.4 22.3
19:15 1019 30.09 849 25.07 3.1 37.6 55 -5.1 22.9
19:20 1019 30.09 849 25.07 3.1 37.6 56 -4.8 23.4
19:25 1019 30.09 849 25.07 3 37.3 56 -4.9 23.2
19:30 1019 30.09 849 25.07 2.9 37.2 57 -4.8 23.4
19:35 1019 30.09 849 25.07 2.9 37.2 57 -4.7 23.5
19:40 1019 30.09 849 25.07 2.9 37.2 57 -4.7 23.5
19:45 1019 30.09 849 25.07 2.9 37.3 57 -4.7 23.5
19:50 1019 30.09 849 25.07 2.9 37.3 59 -4.3 24.3
19:55 1020 30.12 849 25.07 2.9 37.2 60 -4.2 24.5
20:00 1020 30.12 849 25.07 3 37.4 59 -4.3 24.3
20:05 1019 30.09 849 25.07 3.3 37.9 59 -4.1 24.7
20:10 1019 30.09 848 25.04 3.3 38 59 -4 24.8
20:15 1019 30.09 848 25.04 3.3 37.9 60 -3.8 25.2
20:20 1019 30.09 849 25.07 3.2 37.7 59 -4.1 24.7
20:25 1019 30.09 849 25.07 3.1 37.6 59 -4.1 24.6
20:30 1020 30.12 849 25.07 3.1 37.6 60 -3.9 24.9
20:35 1019 30.09 849 25.07 2.9 37.3 62 -3.6 25.6
20:40 1019 30.09 849 25.07 2.6 36.7 64 -3.5 25.8
20:45 1019 30.09 849 25.07 2.4 36.3 66 -3.4 25.9
20:50 1019 30.09 849 25.07 2.3 36.1 67 -3.2 26.2
20:55 1019 30.09 848 25.04 2.1 35.8 68 -3.1 26.4
21:00 1019 30.09 849 25.07 2.1 35.7 68 -3.2 26.3
21:05 1020 30.12 849 25.07 2.1 35.7 68 -3.2 26.3
21:10 1020 30.12 849 25.07 2.1 35.8 69 -3.1 26.5
21:15 1020 30.12 849 25.07 2.1 35.8 68 -3.1 26.4
21:20 1020 30.12 849 25.07 2.1 35.9 69 -3 26.5
21:25 1020 30.12 849 25.07 2.1 35.7 70 -2.9 26.9
21:30 1020 30.12 849 25.07 1.9 35.5 71 -2.9 26.9
21:35 1019 30.09 849 25.07 1.8 35.3 71 -2.9 26.8
21:40 1019 30.09 849 25.07 1.9 35.5 70 -3 26.5
21:45 1020 30.12 849 25.07 2 35.6 69 -3.1 26.5
21:50 1019 30.09 849 25.07 2 35.7 70 -2.9 26.9
21:55 1019 30.09 849 25.07 1.9 35.4 71 -2.9 26.8
22:00 1019 30.09 849 25.07 1.9 35.4 71 -2.8 26.9
22:05 1019 30.09 849 25.07 1.8 35.3 71 -2.8 27
22:10 1019 30.09 849 25.07 2 35.5 70 -3 26.7
22:15 1019 30.09 849 25.07 2.2 35.9 69 -2.9 26.7
22:20 1019 30.09 849 25.07 2.2 36 69 -2.8 26.9
22:25 1019 30.09 848 25.04 2.1 35.8 69 -2.9 26.8
22:30 1019 30.09 848 25.04 2.1 35.9 69 -2.9 26.8
22:35 1019 30.09 848 25.04 2.2 35.9 69 -3 26.7
22:40 1019 30.09 848 25.04 2.2 36 69 -2.9 26.8
22:45 1019 30.09 848 25.04 2.3 36.1 69 -2.8 26.9
22:50 1019 30.09 849 25.07 2.3 36.1 70 -2.7 27.1
22:55 1019 30.09 849 25.07 2.2 36 70 -2.7 27.1
23:00 1019 30.09 849 25.07 2.3 36.1 68 -2.9 26.7
23:05 1019 30.09 849 25.07 2.5 36.4 68 -2.9 26.8
23:10 1020 30.12 849 25.07 2.5 36.6 67 -3 26.7
23:15 1020 30.12 849 25.07 2.6 36.7 67 -2.9 26.7
23:20 1020 30.12 849 25.07 2.6 36.6 68 -2.8 26.9
23:25 1020 30.12 849 25.07 2.6 36.6 67 -2.9 26.8
23:30 1020 30.12 849 25.07 2.6 36.6 68 -2.7 27.2
23:35 1020 30.12 849 25.07 2.4 36.3 69 -2.7 27.1
23:40 1020 30.12 849 25.07 2.4 36.3 68 -2.8 27
23:45 1019 30.09 849 25.07 2.5 36.5 68 -2.8 27
23:50 1019 30.09 848 25.04 2.5 36.5 67 -3 26.7
23:55 1019 30.09 848 25.04 2.7 36.8 66 -3 26.7
24:00 1019 30.09 848 25.04 2.8 37 66 -3 26.6